createdAt,value
2018-08-23T00:01:35.221Z,13.00
2018-08-23T00:04:07.559Z,13.10
2018-08-23T00:06:37.250Z,13.10
2018-08-23T00:09:08.291Z,13.10
2018-08-23T00:11:41.018Z,13.10
2018-08-23T00:14:10.354Z,13.00
2018-08-23T00:16:42.569Z,13.10
2018-08-23T00:19:11.628Z,13.00
2018-08-23T00:21:42.424Z,13.00
2018-08-23T00:24:15.771Z,12.90
2018-08-23T00:26:49.304Z,12.80
2018-08-23T00:29:36.766Z,12.90
2018-08-23T00:32:06.767Z,12.90
2018-08-23T00:34:38.595Z,13.00
2018-08-23T00:37:08.576Z,13.00
2018-08-23T00:39:37.824Z,13.00
2018-08-23T00:42:08.643Z,12.90
2018-08-23T00:44:53.948Z,12.70
2018-08-23T00:47:25.180Z,12.70
2018-08-23T00:49:54.627Z,12.70
2018-08-23T00:52:38.410Z,12.70
2018-08-23T00:55:15.974Z,12.70
2018-08-23T00:57:46.711Z,12.60
2018-08-23T01:00:19.247Z,12.60
2018-08-23T01:02:52.776Z,12.50
2018-08-23T01:05:27.140Z,12.50
2018-08-23T01:07:56.432Z,12.50
2018-08-23T01:10:25.383Z,12.60
2018-08-23T01:13:00.432Z,12.70
2018-08-23T01:15:30.441Z,12.70
2018-08-23T01:18:16.834Z,12.70
2018-08-23T01:20:47.110Z,12.70
2018-08-23T01:23:16.104Z,12.70
2018-08-23T01:25:46.458Z,12.70
2018-08-23T01:28:15.739Z,12.60
2018-08-23T01:30:46.069Z,12.60
2018-08-23T01:33:16.783Z,12.40
2018-08-23T01:35:47.091Z,12.40
2018-08-23T01:38:16.779Z,12.50
2018-08-23T01:40:46.117Z,12.50
2018-08-23T01:43:15.193Z,12.50
2018-08-23T01:45:44.949Z,12.20
2018-08-23T01:48:14.331Z,12.10
2018-08-23T01:50:43.617Z,12.30
2018-08-23T01:53:13.043Z,12.40
2018-08-23T01:55:42.217Z,12.40
2018-08-23T01:58:11.538Z,12.50
2018-08-23T02:00:40.945Z,12.40
2018-08-23T02:03:10.471Z,12.30
2018-08-23T02:05:43.064Z,12.30
2018-08-23T02:08:12.235Z,12.40
2018-08-23T02:10:41.276Z,12.50
2018-08-23T02:13:16.199Z,12.70
2018-08-23T02:15:50.463Z,12.80
2018-08-23T02:18:19.651Z,12.80
2018-08-23T02:20:50.515Z,12.70
2018-08-23T02:23:19.955Z,12.70
2018-08-23T02:25:48.973Z,12.80
2018-08-23T02:28:18.451Z,12.80
2018-08-23T02:30:49.657Z,12.90
2018-08-23T02:33:18.931Z,12.70
2018-08-23T02:36:22.132Z,12.60
2018-08-23T02:39:02.842Z,12.70
2018-08-23T02:41:32.117Z,12.70
2018-08-23T02:44:01.219Z,12.70
2018-08-23T02:46:32.439Z,12.70
2018-08-23T02:49:02.557Z,12.60
2018-08-23T02:51:39.097Z,12.60
2018-08-23T02:54:11.169Z,12.70
2018-08-23T02:56:41.331Z,12.70
2018-08-23T02:59:10.700Z,12.60
2018-08-23T03:01:45.764Z,12.70
2018-08-23T03:04:26.061Z,12.80
2018-08-23T03:06:58.029Z,12.70
2018-08-23T03:09:28.887Z,12.80
2018-08-23T03:11:59.367Z,12.80
2018-08-23T03:14:28.984Z,12.80
2018-08-23T03:17:18.019Z,12.80
2018-08-23T03:20:03.869Z,12.80
2018-08-23T03:22:33.992Z,12.70
2018-08-23T03:25:04.536Z,12.70
2018-08-23T03:27:33.635Z,12.60
2018-08-23T03:30:03.579Z,12.60
2018-08-23T03:32:32.852Z,12.50
2018-08-23T03:35:02.394Z,12.50
2018-08-23T03:37:31.780Z,12.50
2018-08-23T03:40:01.020Z,12.30
2018-08-23T03:42:30.352Z,12.40
2018-08-23T03:45:00.332Z,12.40
2018-08-23T03:47:38.514Z,12.50
2018-08-23T03:50:08.646Z,12.30
2018-08-23T03:52:40.071Z,12.40
2018-08-23T03:55:10.648Z,12.40
2018-08-23T03:57:45.011Z,12.50
2018-08-23T04:00:14.515Z,12.60
2018-08-23T04:02:43.636Z,12.60
2018-08-23T04:05:19.193Z,12.60
2018-08-23T04:07:48.415Z,12.60
2018-08-23T04:10:17.632Z,12.60
2018-08-23T04:12:47.007Z,12.60
2018-08-23T04:15:26.077Z,12.70
2018-08-23T04:17:55.231Z,12.70
2018-08-23T04:20:24.649Z,12.70
2018-08-23T04:22:54.009Z,12.70
2018-08-23T04:25:23.116Z,12.60
2018-08-23T04:27:52.544Z,12.70
2018-08-23T04:30:21.759Z,12.70
2018-08-23T04:32:51.018Z,12.70
2018-08-23T04:35:28.916Z,12.80
2018-08-23T04:37:57.992Z,12.60
2018-08-23T04:40:27.196Z,12.60
2018-08-23T04:42:56.398Z,12.80
2018-08-23T04:45:26.747Z,12.70
2018-08-23T04:48:01.244Z,12.80
2018-08-23T04:50:30.612Z,12.80
2018-08-23T04:53:00.192Z,12.90
2018-08-23T04:55:29.388Z,12.90
2018-08-23T04:57:59.297Z,13.00
2018-08-23T05:00:29.187Z,13.00
2018-08-23T05:02:58.544Z,13.00
2018-08-23T05:05:27.942Z,13.10
2018-08-23T05:07:58.157Z,13.10
2018-08-23T05:10:27.509Z,13.20
2018-08-23T05:12:56.777Z,13.20
2018-08-23T05:15:26.372Z,13.30
2018-08-23T05:17:55.426Z,13.40
2018-08-23T05:20:24.886Z,13.50
2018-08-23T05:23:02.111Z,13.60
2018-08-23T05:25:31.347Z,13.70
2018-08-23T05:28:15.131Z,13.90
2018-08-23T05:30:47.022Z,14.00
2018-08-23T05:33:20.661Z,14.20
2018-08-23T05:35:50.176Z,14.30
2018-08-23T05:38:20.141Z,14.50
2018-08-23T05:41:00.108Z,14.70
2018-08-23T05:43:29.337Z,14.70
2018-08-23T05:45:58.620Z,15.00
2018-08-23T05:48:31.563Z,15.10
2018-08-23T05:51:02.933Z,15.40
2018-08-23T05:53:32.563Z,15.50
2018-08-23T05:56:02.172Z,15.60
2018-08-23T05:58:32.698Z,15.70
2018-08-23T06:01:02.459Z,15.70
2018-08-23T06:03:31.689Z,15.80
2018-08-23T06:06:01.013Z,15.90
2018-08-23T06:08:30.348Z,15.90
2018-08-23T06:11:05.142Z,16.10
2018-08-23T06:13:34.873Z,16.20
2018-08-23T06:16:04.129Z,16.40
2018-08-23T06:18:33.305Z,16.40
2018-08-23T06:21:02.640Z,16.60
2018-08-23T06:24:07.298Z,16.80
2018-08-23T06:26:55.119Z,16.90
2018-08-23T06:29:26.168Z,17.10
2018-08-23T06:32:11.228Z,17.30
2018-08-23T06:34:51.999Z,17.40
2018-08-23T06:37:21.848Z,17.60
2018-08-23T06:39:51.008Z,17.70
2018-08-23T06:42:20.362Z,17.90
2018-08-23T06:44:54.414Z,18.00
2018-08-23T06:47:24.909Z,18.20
2018-08-23T06:49:55.691Z,18.50
2018-08-23T06:53:02.748Z,18.60
2018-08-23T06:55:35.203Z,18.80
2018-08-23T06:58:05.132Z,19.00
2018-08-23T07:00:34.135Z,19.20
2018-08-23T07:03:06.019Z,19.30
2018-08-23T07:05:35.295Z,19.50
2018-08-23T07:08:04.644Z,19.80
2018-08-23T07:10:33.957Z,19.80
2018-08-23T07:13:03.433Z,20.00
2018-08-23T07:15:32.792Z,20.10
2018-08-23T07:18:03.168Z,20.40
2018-08-23T07:20:33.908Z,20.60
2018-08-23T07:23:03.439Z,20.90
2018-08-23T07:25:37.067Z,21.00
2018-08-23T07:28:06.434Z,21.10
2018-08-23T07:30:36.186Z,21.20
2018-08-23T07:33:05.313Z,21.40
2018-08-23T07:35:34.642Z,21.60
2018-08-23T07:38:03.920Z,21.80
2018-08-23T07:40:33.117Z,21.90
2018-08-23T07:43:02.687Z,22.30
2018-08-23T07:45:32.591Z,22.50
2018-08-23T07:48:01.542Z,22.60
2018-08-23T07:50:30.854Z,22.70
2018-08-23T07:53:00.076Z,22.90
2018-08-23T07:55:29.235Z,23.00
2018-08-23T07:57:58.465Z,23.30
2018-08-23T08:01:00.184Z,23.50
2018-08-23T08:03:29.433Z,23.70
2018-08-23T08:05:58.700Z,23.90
2018-08-23T08:08:27.977Z,24.00
2018-08-23T08:11:01.672Z,24.20
2018-08-23T08:13:31.459Z,24.30
2018-08-23T08:16:10.175Z,24.60
2018-08-23T08:18:39.668Z,24.60
2018-08-23T08:21:09.430Z,24.90
2018-08-23T08:23:38.735Z,25.00
2018-08-23T08:26:08.689Z,24.90
2018-08-23T08:28:38.303Z,25.20
2018-08-23T08:31:08.108Z,25.10
2018-08-23T08:33:38.330Z,25.50
2018-08-23T08:36:07.857Z,25.90
2018-08-23T08:38:37.481Z,26.00
2018-08-23T08:41:06.981Z,25.90
2018-08-23T08:43:36.298Z,26.10
2018-08-23T08:46:05.582Z,26.10
2018-08-23T08:48:35.927Z,26.50
2018-08-23T08:51:32.137Z,26.30
2018-08-23T08:54:03.525Z,26.60
2018-08-23T08:56:37.973Z,26.90
2018-08-23T08:59:07.837Z,27.30
2018-08-23T09:01:37.686Z,27.50
2018-08-23T09:04:09.734Z,27.90
2018-08-23T09:06:45.579Z,27.50
2018-08-23T09:09:27.503Z,27.50
2018-08-23T09:11:59.395Z,27.60
2018-08-23T09:14:28.901Z,27.80
2018-08-23T09:16:59.948Z,27.90
2018-08-23T09:19:40.315Z,28.00
2018-08-23T09:22:15.992Z,28.20
2018-08-23T09:24:45.233Z,28.30
2018-08-23T09:27:18.214Z,28.50
2018-08-23T09:29:47.462Z,28.90
2018-08-23T09:32:22.033Z,29.00
2018-08-23T09:34:55.560Z,28.80
2018-08-23T09:37:30.822Z,28.80
2018-08-23T09:40:02.341Z,28.90
2018-08-23T09:42:33.485Z,29.40
2018-08-23T09:45:16.414Z,29.50
2018-08-23T09:47:45.693Z,29.20
2018-08-23T09:50:15.457Z,29.10
2018-08-23T09:52:47.865Z,29.70
2018-08-23T09:55:18.079Z,30.20
2018-08-23T09:57:47.673Z,29.50
2018-08-23T10:00:23.028Z,29.00
2018-08-23T10:02:57.448Z,28.70
2018-08-23T10:05:31.927Z,28.00
2018-08-23T10:08:06.334Z,28.60
2018-08-23T10:10:40.645Z,28.90
2018-08-23T10:15:19.324Z,29.50
2018-08-23T10:17:54.265Z,29.80
2018-08-23T10:20:28.457Z,28.90
2018-08-23T10:23:03.155Z,28.50
2018-08-23T10:25:43.440Z,27.90
2018-08-23T10:28:15.560Z,27.70
2018-08-23T10:30:50.211Z,27.70
2018-08-23T10:33:19.585Z,27.90
2018-08-23T10:35:50.074Z,27.60
2018-08-23T10:38:20.690Z,28.20
2018-08-23T10:40:51.181Z,28.80
2018-08-23T10:43:25.643Z,29.60
2018-08-23T10:45:55.156Z,30.00
2018-08-23T10:48:24.918Z,30.00
2018-08-23T10:50:54.884Z,30.60
2018-08-23T10:53:24.876Z,30.30
2018-08-23T10:55:54.486Z,30.80
2018-08-23T10:58:24.158Z,30.90
2018-08-23T11:00:56.045Z,30.70
2018-08-23T11:03:28.117Z,31.20
2018-08-23T11:05:57.334Z,31.00
2018-08-23T11:08:31.565Z,29.90
2018-08-23T11:11:09.015Z,29.90
2018-08-23T11:13:44.200Z,30.20
2018-08-23T11:16:18.911Z,30.60
2018-08-23T11:18:54.820Z,30.60
2018-08-23T11:21:24.861Z,30.50
2018-08-23T11:23:54.538Z,29.90
2018-08-23T11:26:28.184Z,29.30
2018-08-23T11:28:57.828Z,28.80
2018-08-23T11:31:30.066Z,28.50
2018-08-23T11:33:59.399Z,29.10
2018-08-23T11:36:30.350Z,29.30
2018-08-23T11:38:59.821Z,29.20
2018-08-23T11:41:29.486Z,30.00
2018-08-23T11:43:58.737Z,31.20
2018-08-23T11:46:28.066Z,31.00
2018-08-23T11:48:57.369Z,30.40
2018-08-23T11:51:26.704Z,29.90
2018-08-23T11:53:55.867Z,29.60
2018-08-23T11:56:24.971Z,29.30
2018-08-23T11:58:54.544Z,29.00
2018-08-23T12:01:23.793Z,28.90
2018-08-23T12:03:53.233Z,28.90
2018-08-23T12:06:22.543Z,29.60
2018-08-23T12:08:51.883Z,30.20
2018-08-23T12:11:21.027Z,30.10
2018-08-23T12:13:51.020Z,30.90
2018-08-23T12:16:20.376Z,31.40
2018-08-23T12:18:50.178Z,31.90
2018-08-23T12:21:19.423Z,31.90
2018-08-23T12:23:48.854Z,31.70
2018-08-23T12:26:18.049Z,31.80
2018-08-23T12:28:52.297Z,31.20
2018-08-23T12:31:21.476Z,31.80
2018-08-23T12:33:52.305Z,32.00
2018-08-23T12:36:27.092Z,31.80
2018-08-23T12:39:01.572Z,31.40
2018-08-23T12:41:35.881Z,31.10
2018-08-23T12:44:05.327Z,31.30
2018-08-23T12:46:34.976Z,31.20
2018-08-23T12:49:04.130Z,31.80
2018-08-23T12:51:33.660Z,31.70
2018-08-23T12:54:03.212Z,31.50
2018-08-23T12:56:32.957Z,32.20
2018-08-23T12:59:02.255Z,31.70
2018-08-23T13:01:31.402Z,31.30
2018-08-23T13:04:00.696Z,32.00
2018-08-23T13:06:29.862Z,31.80
2018-08-23T13:08:59.028Z,32.10
2018-08-23T13:11:28.564Z,31.80
2018-08-23T13:13:57.798Z,32.40
2018-08-23T13:16:27.255Z,32.00
2018-08-23T13:18:56.740Z,31.70
2018-08-23T13:21:25.856Z,31.90
2018-08-23T13:26:39.249Z,31.40
2018-08-23T13:29:08.581Z,31.00
2018-08-23T13:31:38.184Z,31.30
2018-08-23T13:34:07.609Z,31.10
2018-08-23T13:36:37.150Z,31.60
2018-08-23T13:39:08.965Z,31.70
2018-08-23T13:41:38.760Z,31.70
2018-08-23T13:44:11.510Z,31.50
2018-08-23T13:46:41.786Z,31.10
2018-08-23T13:49:11.222Z,30.90
2018-08-23T13:51:40.423Z,31.00
2018-08-23T13:54:09.947Z,31.30
2018-08-23T13:56:39.282Z,31.00
2018-08-23T13:59:08.634Z,31.50
2018-08-23T14:01:37.675Z,31.20
2018-08-23T14:04:06.736Z,30.90
2018-08-23T14:06:36.468Z,30.70
2018-08-23T14:09:06.634Z,30.90
2018-08-23T14:11:35.857Z,31.00
2018-08-23T14:14:05.147Z,30.90
2018-08-23T14:16:34.849Z,31.00
2018-08-23T14:19:04.431Z,31.00
2018-08-23T14:21:33.973Z,31.00
2018-08-23T14:24:03.799Z,31.00
2018-08-23T14:26:33.230Z,30.90
2018-08-23T14:29:03.238Z,30.90
2018-08-23T14:31:32.408Z,31.20
2018-08-23T14:34:01.635Z,31.20
2018-08-23T14:36:31.449Z,31.40
2018-08-23T14:39:01.225Z,31.30
2018-08-23T14:41:30.489Z,31.30
2018-08-23T14:44:00.044Z,31.40
2018-08-23T14:46:34.302Z,31.40
2018-08-23T14:49:03.469Z,31.50
2018-08-23T14:51:32.606Z,31.30
2018-08-23T14:54:01.794Z,31.10
2018-08-23T14:56:36.259Z,30.60
2018-08-23T14:59:05.703Z,30.40
2018-08-23T15:01:35.049Z,30.50
2018-08-23T15:04:04.230Z,30.00
2018-08-23T15:06:33.447Z,29.90
2018-08-23T15:09:02.697Z,29.80
2018-08-23T15:11:32.146Z,30.20
2018-08-23T15:14:01.311Z,29.80
2018-08-23T15:16:30.523Z,29.80
2018-08-23T15:18:59.849Z,29.30
2018-08-23T15:21:29.188Z,29.00
2018-08-23T15:23:58.620Z,28.90
2018-08-23T15:26:28.186Z,28.80
2018-08-23T15:28:57.099Z,28.60
2018-08-23T15:31:26.728Z,28.40
2018-08-23T15:33:56.430Z,28.20
2018-08-23T15:36:25.968Z,27.60
2018-08-23T15:38:55.566Z,27.30
2018-08-23T15:41:25.422Z,26.80
2018-08-23T15:43:55.261Z,26.50
2018-08-23T15:46:29.240Z,26.20
2018-08-23T15:48:59.410Z,25.70
2018-08-23T15:51:30.283Z,25.50
2018-08-23T15:54:00.009Z,25.30
2018-08-23T15:56:29.701Z,25.40
2018-08-23T15:58:58.837Z,24.90
2018-08-23T16:01:28.169Z,24.60
2018-08-23T16:03:57.703Z,24.60
2018-08-23T16:06:28.249Z,24.70
2018-08-23T16:08:57.492Z,24.60
2018-08-23T16:11:27.298Z,24.60
2018-08-23T16:13:56.994Z,24.10
2018-08-23T16:16:31.512Z,24.10
2018-08-23T16:19:06.157Z,24.30
2018-08-23T16:21:38.749Z,24.10
2018-08-23T16:24:08.116Z,24.00
2018-08-23T16:26:42.851Z,23.90
2018-08-23T16:29:12.117Z,23.90
2018-08-23T16:31:41.484Z,24.00
2018-08-23T16:34:10.635Z,23.80
2018-08-23T16:36:40.093Z,23.80
2018-08-23T16:39:10.284Z,23.70
2018-08-23T16:41:39.757Z,23.40
2018-08-23T16:44:09.337Z,23.30
2018-08-23T16:46:38.549Z,23.40
2018-08-23T16:49:07.810Z,23.50
2018-08-23T16:51:37.461Z,23.50
2018-08-23T16:54:07.300Z,23.40
2018-08-23T16:56:36.577Z,23.40
2018-08-23T16:59:05.872Z,23.10
2018-08-23T17:01:35.292Z,23.00
2018-08-23T17:04:04.463Z,23.00
2018-08-23T17:06:33.790Z,22.80
2018-08-23T17:09:03.128Z,22.70
2018-08-23T17:11:32.135Z,22.70
2018-08-23T17:14:01.748Z,22.60
2018-08-23T17:16:36.382Z,22.50
2018-08-23T17:19:05.769Z,22.40
2018-08-23T17:21:34.880Z,22.40
2018-08-23T17:24:04.255Z,22.20
2018-08-23T17:26:33.697Z,22.20
2018-08-23T17:29:02.764Z,22.10
2018-08-23T17:31:31.955Z,22.00
2018-08-23T17:34:01.547Z,21.90
2018-08-23T17:36:30.824Z,21.80
2018-08-23T17:39:00.212Z,21.80
2018-08-23T17:41:29.323Z,21.70
2018-08-23T17:43:58.560Z,21.60
2018-08-23T17:46:27.675Z,21.50
2018-08-23T17:48:56.930Z,21.40
2018-08-23T17:51:26.086Z,21.30
2018-08-23T17:53:55.467Z,21.20
2018-08-23T17:56:24.757Z,21.10
2018-08-23T17:58:54.217Z,21.00
2018-08-23T18:01:23.812Z,20.90
2018-08-23T18:03:54.235Z,20.80
2018-08-23T18:06:23.565Z,20.70
2018-08-23T18:08:52.621Z,20.60
2018-08-23T18:11:21.812Z,20.60
2018-08-23T18:13:51.036Z,20.40
2018-08-23T18:16:25.415Z,20.40
2018-08-23T18:18:54.557Z,20.20
2018-08-23T18:21:23.842Z,20.10
2018-08-23T18:23:53.447Z,19.90
2018-08-23T18:26:22.847Z,19.80
2018-08-23T18:28:52.126Z,19.80
2018-08-23T18:31:21.232Z,19.70
2018-08-23T18:33:50.510Z,19.50
2018-08-23T18:36:20.341Z,19.50
2018-08-23T18:38:49.749Z,19.20
2018-08-23T18:41:19.642Z,19.10
2018-08-23T18:43:49.175Z,19.00
2018-08-23T18:46:18.553Z,19.10
2018-08-23T18:48:48.258Z,19.10
2018-08-23T18:51:19.084Z,19.10
2018-08-23T18:53:49.306Z,18.90
2018-08-23T18:56:19.376Z,18.80
2018-08-23T18:58:51.048Z,18.70
2018-08-23T19:01:21.298Z,18.80
2018-08-23T19:03:51.110Z,18.80
2018-08-23T19:06:20.506Z,18.70
2018-08-23T19:08:50.793Z,18.70
2018-08-23T19:11:20.234Z,18.70
2018-08-23T19:13:49.895Z,18.70
2018-08-23T19:16:25.120Z,18.70
2018-08-23T19:18:54.623Z,18.70
2018-08-23T19:21:24.215Z,18.50
2018-08-23T19:23:53.782Z,18.50
2018-08-23T19:26:25.856Z,18.40
2018-08-23T19:28:55.603Z,18.50
2018-08-23T19:31:25.326Z,18.40
2018-08-23T19:33:54.881Z,18.30
2018-08-23T19:36:24.322Z,18.20
2018-08-23T19:38:53.836Z,18.20
2018-08-23T19:41:23.120Z,18.00
2018-08-23T19:43:52.513Z,17.90
2018-08-23T19:46:27.157Z,17.90
2018-08-23T19:49:02.288Z,17.60
2018-08-23T19:51:32.461Z,17.60
2018-08-23T19:54:01.939Z,17.60
2018-08-23T19:56:34.173Z,17.50
2018-08-23T19:59:04.516Z,17.40
2018-08-23T20:01:34.521Z,17.50
2018-08-23T20:04:08.381Z,17.50
2018-08-23T20:06:38.257Z,17.50
2018-08-23T20:09:10.834Z,17.60
2018-08-23T20:11:43.513Z,17.60
2018-08-23T20:14:15.314Z,17.60
2018-08-23T20:16:45.015Z,17.50
2018-08-23T20:19:15.644Z,17.40
2018-08-23T20:21:47.562Z,17.30
2018-08-23T20:24:17.838Z,17.20
2018-08-23T20:26:47.799Z,17.10
2018-08-23T20:29:16.818Z,17.10
2018-08-23T20:31:45.950Z,17.00
2018-08-23T20:34:17.073Z,17.00
2018-08-23T20:36:46.906Z,17.10
2018-08-23T20:39:17.541Z,17.10
2018-08-23T20:41:48.338Z,17.20
2018-08-23T20:44:19.497Z,17.20
2018-08-23T20:46:50.298Z,17.10
2018-08-23T20:49:20.557Z,17.10
2018-08-23T20:51:50.529Z,17.00
2018-08-23T20:54:22.041Z,16.90
2018-08-23T20:56:51.564Z,16.70
2018-08-23T20:59:20.965Z,16.70
2018-08-23T21:01:50.869Z,16.80
2018-08-23T21:04:21.485Z,16.80
2018-08-23T21:06:50.884Z,16.80
2018-08-23T21:09:20.235Z,16.80
2018-08-23T21:11:49.489Z,16.60
2018-08-23T21:14:18.724Z,16.60
2018-08-23T21:16:48.458Z,16.50
2018-08-23T21:19:17.771Z,16.70
2018-08-23T21:21:47.049Z,16.70
2018-08-23T21:24:16.612Z,16.70
2018-08-23T21:26:45.861Z,16.70
2018-08-23T21:29:16.101Z,16.60
2018-08-23T21:31:46.680Z,16.60
2018-08-23T21:34:15.907Z,16.70
2018-08-23T21:36:48.434Z,16.60
2018-08-23T21:39:17.840Z,16.60
2018-08-23T21:41:47.116Z,16.60
2018-08-23T21:44:18.281Z,16.60
2018-08-23T21:46:59.021Z,16.60
2018-08-23T21:49:28.920Z,16.60
2018-08-23T21:51:58.373Z,16.50
2018-08-23T21:54:28.031Z,16.50
2018-08-23T21:56:57.704Z,16.50
2018-08-23T21:59:27.255Z,16.40
2018-08-23T22:02:01.705Z,16.20
2018-08-23T22:04:31.127Z,16.10
2018-08-23T22:07:00.774Z,16.10
2018-08-23T22:09:30.138Z,16.10
2018-08-23T22:12:01.122Z,16.10
2018-08-23T22:14:30.275Z,16.20
2018-08-23T22:16:59.448Z,16.30
2018-08-23T22:19:28.755Z,16.30
2018-08-23T22:21:58.360Z,16.30
2018-08-23T22:24:27.547Z,16.30
2018-08-23T22:26:56.883Z,16.40
2018-08-23T22:29:26.055Z,16.50
2018-08-23T22:31:55.459Z,16.30
2018-08-23T22:34:24.652Z,16.20
2018-08-23T22:36:54.116Z,16.20
2018-08-23T22:39:23.272Z,16.30
2018-08-23T22:41:53.472Z,16.30
2018-08-23T22:44:22.993Z,16.40
2018-08-23T22:46:51.980Z,16.40
2018-08-23T22:49:21.449Z,16.30
2018-08-23T22:51:50.746Z,16.30
2018-08-23T22:54:19.801Z,16.20
2018-08-23T22:56:49.063Z,16.20
2018-08-23T22:59:18.235Z,16.20
2018-08-23T23:01:47.454Z,16.30
2018-08-23T23:04:22.307Z,16.30
2018-08-23T23:06:51.689Z,16.20
2018-08-23T23:09:20.749Z,16.30
2018-08-23T23:11:50.088Z,16.40
2018-08-23T23:14:19.355Z,16.10
2018-08-23T23:16:53.807Z,16.10
2018-08-23T23:19:23.074Z,16.10
2018-08-23T23:21:52.137Z,16.00
2018-08-23T23:24:26.444Z,16.00
2018-08-23T23:26:56.386Z,16.10
2018-08-23T23:29:25.867Z,16.10
2018-08-23T23:31:55.044Z,16.20
2018-08-23T23:34:24.348Z,16.20
2018-08-23T23:36:53.661Z,16.30
2018-08-23T23:39:22.802Z,16.40
2018-08-23T23:41:52.203Z,16.40
2018-08-23T23:44:21.504Z,16.40
2018-08-23T23:46:50.742Z,16.40
2018-08-23T23:49:19.924Z,16.40
2018-08-23T23:51:49.111Z,16.30
2018-08-23T23:54:18.572Z,16.20
2018-08-23T23:56:47.657Z,16.00
2018-08-23T23:59:16.598Z,16.10
